Terminal Aerodrome Forecast
Issued by NWS

Home | Current Version | Previous Version | Graphics & Text | Print | Product List | Glossary On
Versions: 1 2 3 4 5 6 7 8 9 10 11 12 13 14 15 16 17 18 19 20 21 22 23 24 25 26
973
FTUS43 KICT 261141
TAFHUT
TAF
KHUT 261141Z 2612/2712 VRB03KT 6SM BR SCT003 OVC005
      TEMPO 2612/2614 4SM BR OVC003
     FM261500 09009KT P6SM SCT008 BKN012
     FM261800 11012KT P6SM SCT030 BKN150
     FM262100 10014KT P6SM VCTS BKN050CB
     FM270000 06015G22KT P6SM VCTS SCT015 BKN030CB
     FM270600 02015G22KT P6SM VCSH SCT009 BKN015=

USA.gov is the U.S. government's official web portal to all federal, state and local government web resources and services.